createdAt,value
2022-10-31T00:01:39.568Z,84.34
2022-10-31T00:04:07.906Z,84.62
2022-10-31T00:06:36.156Z,84.80
2022-10-31T00:09:06.304Z,85.17
2022-10-31T00:11:34.858Z,85.25
2022-10-31T00:14:03.561Z,85.40
2022-10-31T00:16:32.031Z,85.56
2022-10-31T00:19:05.636Z,85.96
2022-10-31T00:21:34.576Z,86.29
2022-10-31T00:24:03.924Z,86.14
2022-10-31T00:26:32.997Z,86.54
2022-10-31T00:29:01.812Z,86.63
2022-10-31T00:31:30.718Z,86.59
2022-10-31T00:33:59.799Z,86.37
2022-10-31T00:36:28.684Z,86.02
2022-10-31T00:38:57.083Z,85.48
2022-10-31T00:41:26.287Z,85.39
2022-10-31T00:43:54.563Z,85.24
2022-10-31T00:46:22.836Z,85.15
2022-10-31T00:48:52.645Z,84.79
2022-10-31T00:51:20.927Z,84.74
2022-10-31T00:53:49.277Z,84.87
2022-10-31T00:56:18.322Z,85.19
2022-10-31T00:58:47.081Z,84.97
2022-10-31T01:01:15.448Z,84.27
2022-10-31T01:03:43.866Z,84.55
2022-10-31T01:06:15.367Z,84.28
2022-10-31T01:08:44.271Z,84.38
2022-10-31T01:11:19.885Z,84.46
2022-10-31T01:13:50.952Z,84.56
2022-10-31T01:16:22.875Z,84.74
2022-10-31T01:18:52.644Z,84.68
2022-10-31T01:21:27.352Z,84.65
2022-10-31T01:23:59.700Z,84.84
2022-10-31T01:26:32.000Z,85.27
2022-10-31T01:29:08.328Z,84.75
2022-10-31T01:31:41.243Z,85.42
2022-10-31T01:34:16.396Z,85.22
2022-10-31T01:36:48.417Z,85.64
2022-10-31T01:39:18.156Z,85.48
2022-10-31T01:41:50.106Z,85.39
2022-10-31T01:44:18.402Z,85.74
2022-10-31T01:46:57.630Z,85.58
2022-10-31T01:49:49.892Z,85.33
2022-10-31T01:52:28.467Z,85.62
2022-10-31T01:55:14.599Z,85.77
2022-10-31T01:57:48.907Z,85.93
2022-10-31T02:00:21.080Z,85.91
2022-10-31T02:02:51.318Z,85.07
2022-10-31T02:05:25.908Z,85.45
2022-10-31T02:08:08.182Z,85.26
2022-10-31T02:10:38.244Z,85.73
2022-10-31T02:13:09.287Z,85.80
2022-10-31T02:15:46.672Z,85.65
2022-10-31T02:18:15.345Z,85.45
2022-10-31T02:21:03.294Z,85.54
2022-10-31T02:23:51.218Z,85.43
2022-10-31T02:27:10.505Z,85.06
2022-10-31T02:30:12.464Z,85.06
2022-10-31T02:32:56.005Z,84.90
2022-10-31T02:35:40.852Z,84.45
2022-10-31T02:38:44.048Z,84.39
2022-10-31T02:41:37.928Z,84.52
2022-10-31T02:44:30.670Z,84.65
2022-10-31T02:47:18.802Z,86.00
2022-10-31T02:49:49.144Z,86.10
2022-10-31T02:52:30.623Z,86.51
2022-10-31T02:55:34.128Z,87.24
2022-10-31T02:58:09.951Z,87.06
2022-10-31T03:01:08.936Z,86.85
2022-10-31T03:04:09.832Z,87.66
2022-10-31T03:07:38.518Z,88.31
2022-10-31T03:10:20.725Z,88.18
2022-10-31T03:13:05.798Z,88.51
2022-10-31T03:15:40.271Z,88.36
2022-10-31T03:18:28.951Z,88.50
2022-10-31T03:21:06.862Z,88.48
2022-10-31T03:23:37.954Z,88.24
2022-10-31T03:26:10.779Z,88.24
2022-10-31T03:28:47.674Z,88.38
2022-10-31T03:31:24.332Z,88.30
2022-10-31T03:33:54.129Z,88.35
2022-10-31T03:36:23.955Z,88.37
2022-10-31T03:38:52.848Z,88.36
2022-10-31T03:41:29.011Z,88.06
2022-10-31T03:44:05.067Z,88.14
2022-10-31T03:46:33.955Z,88.06
2022-10-31T03:49:03.114Z,87.53
2022-10-31T03:52:19.247Z,86.74
2022-10-31T03:54:57.374Z,86.93
2022-10-31T03:57:28.192Z,86.99
2022-10-31T04:00:14.510Z,87.07
2022-10-31T04:03:14.015Z,86.84
2022-10-31T04:05:47.703Z,86.97
2022-10-31T04:08:21.808Z,87.52
2022-10-31T04:10:52.543Z,87.77
2022-10-31T04:13:28.268Z,87.89
2022-10-31T04:16:14.317Z,88.14
2022-10-31T04:18:46.729Z,87.90
2022-10-31T04:21:15.159Z,87.97
2022-10-31T04:23:44.140Z,88.08
2022-10-31T04:26:19.186Z,87.77
2022-10-31T04:28:48.693Z,87.77
2022-10-31T04:31:17.190Z,87.64
2022-10-31T04:33:46.660Z,87.72
2022-10-31T04:36:15.261Z,87.86
2022-10-31T04:38:43.933Z,88.61
2022-10-31T04:41:21.542Z,88.33
2022-10-31T04:43:55.436Z,88.48
2022-10-31T04:46:24.031Z,88.93
2022-10-31T04:48:52.513Z,89.30
2022-10-31T04:51:20.886Z,89.40
2022-10-31T04:53:49.759Z,89.76
2022-10-31T04:56:58.647Z,89.36
2022-10-31T04:59:27.294Z,88.81
2022-10-31T05:01:55.893Z,88.68
2022-10-31T05:04:38.769Z,88.39
2022-10-31T05:07:07.082Z,88.09
2022-10-31T05:09:35.319Z,88.06
2022-10-31T05:12:03.634Z,87.70
2022-10-31T05:14:50.210Z,87.34
2022-10-31T05:17:36.736Z,88.38
2022-10-31T05:20:27.612Z,88.97
2022-10-31T05:23:24.128Z,89.14
2022-10-31T05:25:52.479Z,88.04
2022-10-31T05:28:20.980Z,87.29
2022-10-31T05:30:49.198Z,86.60
2022-10-31T05:33:18.048Z,86.69
2022-10-31T05:36:05.340Z,87.43
2022-10-31T05:39:17.297Z,87.93
2022-10-31T05:41:48.985Z,87.75
2022-10-31T05:44:21.856Z,87.89
2022-10-31T05:47:09.242Z,88.38
2022-10-31T05:49:56.975Z,88.55
2022-10-31T05:52:44.039Z,88.23
2022-10-31T05:55:28.603Z,88.32
2022-10-31T05:58:17.647Z,88.07
2022-10-31T06:01:11.513Z,87.88
2022-10-31T06:03:40.383Z,87.41
2022-10-31T06:06:10.952Z,87.25
2022-10-31T06:08:42.161Z,87.58
2022-10-31T06:11:15.831Z,87.57
2022-10-31T06:14:03.796Z,87.60
2022-10-31T06:16:46.336Z,87.66
2022-10-31T06:19:58.064Z,87.03
2022-10-31T06:22:28.612Z,86.86
2022-10-31T06:24:57.527Z,86.73
2022-10-31T06:27:35.906Z,87.74
2022-10-31T06:30:10.639Z,88.13
2022-10-31T06:32:39.180Z,88.31
2022-10-31T06:35:07.860Z,88.23
2022-10-31T06:37:36.316Z,88.72
2022-10-31T06:40:45.989Z,88.28
2022-10-31T06:43:23.247Z,87.54
2022-10-31T06:45:53.620Z,87.70
2022-10-31T06:48:43.226Z,87.36
2022-10-31T06:51:17.818Z,86.70
2022-10-31T06:53:46.429Z,86.61
2022-10-31T06:56:15.476Z,86.76
2022-10-31T06:58:47.532Z,86.86
2022-10-31T07:01:17.500Z,87.42
2022-10-31T07:03:45.968Z,87.43
2022-10-31T07:06:15.565Z,87.76
2022-10-31T07:08:44.311Z,87.53
2022-10-31T07:11:12.616Z,87.45
2022-10-31T07:13:41.190Z,87.11
2022-10-31T07:16:13.123Z,86.27
2022-10-31T07:18:42.153Z,85.70
2022-10-31T07:21:10.500Z,85.07
2022-10-31T07:23:38.779Z,85.03
2022-10-31T07:27:02.926Z,84.89
2022-10-31T07:29:31.326Z,84.95
2022-10-31T07:32:00.103Z,84.95
2022-10-31T07:34:29.314Z,84.97
2022-10-31T07:36:57.583Z,84.58
2022-10-31T07:39:26.147Z,83.74
2022-10-31T07:41:54.444Z,83.33
2022-10-31T07:44:22.756Z,82.28
2022-10-31T07:47:09.299Z,81.60
2022-10-31T07:49:56.231Z,81.20
2022-10-31T07:52:43.248Z,80.59
2022-10-31T07:55:26.801Z,79.78
2022-10-31T07:58:02.612Z,79.40
2022-10-31T08:00:33.712Z,79.40
2022-10-31T08:03:04.948Z,79.85
2022-10-31T08:06:32.293Z,79.31
2022-10-31T08:09:15.053Z,78.86
2022-10-31T08:11:43.554Z,78.48
2022-10-31T08:14:11.934Z,77.79
2022-10-31T08:16:40.410Z,77.97
2022-10-31T08:19:09.079Z,78.79
2022-10-31T08:21:39.596Z,78.91
2022-10-31T08:24:10.247Z,78.56
2022-10-31T08:26:39.329Z,78.39
2022-10-31T08:29:09.943Z,78.64
2022-10-31T08:31:42.573Z,78.76
2022-10-31T08:34:29.572Z,78.99
2022-10-31T08:37:21.023Z,77.48
2022-10-31T08:39:54.024Z,77.21
2022-10-31T08:42:23.008Z,77.61
2022-10-31T08:44:51.497Z,78.02
2022-10-31T08:47:22.628Z,77.78
2022-10-31T08:49:50.940Z,77.69
2022-10-31T08:52:19.398Z,77.56
2022-10-31T08:54:48.846Z,77.20
2022-10-31T08:57:35.717Z,76.55
2022-10-31T09:00:04.776Z,76.99
2022-10-31T09:03:25.484Z,76.91
2022-10-31T09:06:00.537Z,76.85
2022-10-31T09:08:34.044Z,76.16
2022-10-31T09:11:04.401Z,76.22
2022-10-31T09:14:28.487Z,76.50
2022-10-31T09:17:15.249Z,75.12
2022-10-31T09:20:06.776Z,74.73
2022-10-31T09:22:36.252Z,75.57
2022-10-31T09:25:05.100Z,74.98
2022-10-31T09:27:33.410Z,74.73
2022-10-31T09:30:03.168Z,74.28
2022-10-31T09:32:31.618Z,74.51
2022-10-31T09:35:00.161Z,73.89
2022-10-31T09:37:30.064Z,73.93
2022-10-31T09:39:58.496Z,73.27
2022-10-31T09:43:17.319Z,72.51
2022-10-31T09:46:37.189Z,72.48
2022-10-31T09:49:36.068Z,71.96
2022-10-31T09:52:22.246Z,71.69
2022-10-31T09:54:58.096Z,71.59
2022-10-31T09:57:36.799Z,71.41
2022-10-31T10:00:08.449Z,71.18
2022-10-31T10:03:29.852Z,71.89
2022-10-31T10:06:16.419Z,70.90
2022-10-31T10:09:04.136Z,70.44
2022-10-31T10:12:21.129Z,70.67
2022-10-31T10:15:07.539Z,70.47
2022-10-31T10:17:51.023Z,70.86
2022-10-31T10:20:50.373Z,70.83
2022-10-31T10:23:30.824Z,70.20
2022-10-31T10:26:14.128Z,70.21
2022-10-31T10:28:48.544Z,70.05
2022-10-31T10:31:23.109Z,69.74
2022-10-31T10:34:09.220Z,69.98
2022-10-31T10:36:56.040Z,69.46
2022-10-31T10:39:34.311Z,69.75
2022-10-31T10:42:26.973Z,69.22
2022-10-31T10:45:14.061Z,69.39
2022-10-31T10:47:55.475Z,68.56
2022-10-31T10:50:39.768Z,68.79
2022-10-31T10:53:33.088Z,68.67
2022-10-31T10:56:03.947Z,68.24
2022-10-31T10:58:32.268Z,68.11
2022-10-31T11:01:00.723Z,67.46
2022-10-31T11:03:29.244Z,67.41
2022-10-31T11:06:03.013Z,67.32
2022-10-31T11:08:37.295Z,67.21
2022-10-31T11:11:17.882Z,66.79
2022-10-31T11:13:58.932Z,66.26
2022-10-31T11:16:27.333Z,66.66
2022-10-31T11:19:09.039Z,65.31
2022-10-31T11:21:37.883Z,65.37
2022-10-31T11:24:12.354Z,65.28
2022-10-31T11:26:44.167Z,65.25
2022-10-31T11:29:17.943Z,65.40
2022-10-31T11:31:48.480Z,64.40
2022-10-31T11:34:31.193Z,63.07
2022-10-31T11:37:15.423Z,62.55
2022-10-31T11:39:54.498Z,63.32
2022-10-31T11:42:27.519Z,63.56
2022-10-31T11:44:57.416Z,63.79
2022-10-31T11:47:33.625Z,63.69
2022-10-31T11:50:11.039Z,63.78
2022-10-31T11:52:41.529Z,63.97
2022-10-31T11:55:37.223Z,64.04
2022-10-31T11:58:20.116Z,64.27
2022-10-31T12:00:55.912Z,64.37
2022-10-31T12:03:25.051Z,63.89
2022-10-31T12:06:06.251Z,63.00
2022-10-31T12:08:38.311Z,61.58
2022-10-31T12:11:27.683Z,61.20
2022-10-31T12:14:14.690Z,61.70
2022-10-31T12:17:26.474Z,61.79
2022-10-31T12:20:08.255Z,62.06
2022-10-31T12:22:58.314Z,61.81
2022-10-31T12:26:09.976Z,62.34
2022-10-31T12:28:55.229Z,62.10
2022-10-31T12:31:36.976Z,62.02
2022-10-31T12:34:49.112Z,61.78
2022-10-31T12:37:32.556Z,61.09
2022-10-31T12:40:44.797Z,59.86
2022-10-31T12:43:34.850Z,59.39
2022-10-31T12:46:09.560Z,58.87
2022-10-31T12:49:09.281Z,59.00
2022-10-31T12:52:35.280Z,58.47
2022-10-31T12:55:38.880Z,57.35
2022-10-31T12:58:30.546Z,57.40
2022-10-31T13:01:18.102Z,57.94
2022-10-31T13:03:52.367Z,58.25
2022-10-31T13:06:25.492Z,58.50
2022-10-31T13:09:03.295Z,59.18
2022-10-31T13:11:39.055Z,58.61
2022-10-31T13:14:44.069Z,59.30
2022-10-31T13:17:43.402Z,59.75
2022-10-31T13:20:39.736Z,60.06
2022-10-31T13:23:52.008Z,60.08
2022-10-31T13:26:36.585Z,59.96
2022-10-31T13:29:34.852Z,59.88
2022-10-31T13:32:08.089Z,60.03
2022-10-31T13:34:47.033Z,60.13
2022-10-31T13:37:35.550Z,60.04
2022-10-31T13:40:35.331Z,60.45
2022-10-31T13:43:29.657Z,60.35
2022-10-31T13:46:01.440Z,60.49
2022-10-31T13:48:29.702Z,60.67
2022-10-31T13:51:03.152Z,60.91
2022-10-31T13:53:58.770Z,60.77
2022-10-31T13:56:33.868Z,60.24
2022-10-31T13:59:08.217Z,59.92
2022-10-31T14:01:37.895Z,60.09
2022-10-31T14:04:20.722Z,59.87
2022-10-31T14:07:08.718Z,60.03
2022-10-31T14:09:39.706Z,60.07
2022-10-31T14:12:24.744Z,60.01
2022-10-31T14:15:00.507Z,59.99
2022-10-31T14:17:38.200Z,60.34
2022-10-31T14:20:12.680Z,60.57
2022-10-31T14:22:43.014Z,60.45
2022-10-31T14:25:33.592Z,60.48
2022-10-31T14:28:32.029Z,60.83
2022-10-31T14:31:01.939Z,61.33
2022-10-31T14:33:32.143Z,61.68
2022-10-31T14:36:23.297Z,62.07
2022-10-31T14:39:23.349Z,62.72
2022-10-31T14:42:22.528Z,63.34
2022-10-31T14:45:06.412Z,63.76
2022-10-31T14:48:08.139Z,64.17
2022-10-31T14:50:49.863Z,64.30
2022-10-31T14:53:30.659Z,64.44
2022-10-31T14:56:04.300Z,64.85
2022-10-31T14:58:41.057Z,64.88
2022-10-31T15:01:22.164Z,65.21
2022-10-31T15:04:17.860Z,65.29
2022-10-31T15:06:49.279Z,65.44
2022-10-31T15:09:27.825Z,65.05
2022-10-31T15:11:56.020Z,65.38
2022-10-31T15:14:31.919Z,65.53
2022-10-31T15:17:04.100Z,65.70
2022-10-31T15:19:35.008Z,65.76
2022-10-31T15:22:03.402Z,66.01
2022-10-31T15:24:39.895Z,66.21
2022-10-31T15:27:16.984Z,66.44
2022-10-31T15:29:54.549Z,66.53
2022-10-31T15:32:29.603Z,66.53
2022-10-31T15:34:58.315Z,66.59
2022-10-31T15:37:28.080Z,66.58
2022-10-31T15:39:56.396Z,66.64
2022-10-31T15:42:48.429Z,66.83
2022-10-31T15:45:26.573Z,66.84
2022-10-31T15:48:05.809Z,66.97
2022-10-31T15:50:34.199Z,67.26
2022-10-31T15:53:03.389Z,67.45
2022-10-31T15:55:37.776Z,67.35
2022-10-31T15:58:15.489Z,67.45
2022-10-31T16:00:43.688Z,67.64
2022-10-31T16:03:31.273Z,67.48
2022-10-31T16:06:06.189Z,67.73
2022-10-31T16:08:37.383Z,67.78
2022-10-31T16:11:08.833Z,67.68
2022-10-31T16:13:42.823Z,68.04
2022-10-31T16:16:34.587Z,67.83
2022-10-31T16:19:07.151Z,67.88
2022-10-31T16:21:39.490Z,68.12
2022-10-31T16:24:32.958Z,68.38
2022-10-31T16:27:39.850Z,68.11
2022-10-31T16:30:47.020Z,68.03
2022-10-31T16:33:35.300Z,67.96
2022-10-31T16:36:35.398Z,67.86
2022-10-31T16:39:04.902Z,67.68
2022-10-31T16:41:40.907Z,68.05
2022-10-31T16:44:28.279Z,67.98
2022-10-31T16:47:09.996Z,68.11
2022-10-31T16:49:39.125Z,68.49
2022-10-31T16:52:07.704Z,68.56
2022-10-31T16:54:37.388Z,68.30
2022-10-31T16:57:07.238Z,68.32
2022-10-31T16:59:35.876Z,68.38
2022-10-31T17:02:05.463Z,68.34
2022-10-31T17:04:33.857Z,68.24
2022-10-31T17:07:02.168Z,67.84
2022-10-31T17:09:30.545Z,67.69
2022-10-31T17:11:59.081Z,67.86
2022-10-31T17:14:27.485Z,67.57
2022-10-31T17:16:58.772Z,67.67
2022-10-31T17:19:27.169Z,67.72
2022-10-31T17:21:55.515Z,67.71
2022-10-31T17:24:23.844Z,67.48
2022-10-31T17:26:52.169Z,67.58
2022-10-31T17:29:20.323Z,67.67
2022-10-31T17:31:49.512Z,67.76
2022-10-31T17:34:19.535Z,67.85
2022-10-31T17:36:52.748Z,68.07
2022-10-31T17:39:21.206Z,68.12
2022-10-31T17:41:53.179Z,67.95
2022-10-31T17:44:21.461Z,68.10
2022-10-31T17:46:50.503Z,68.45
2022-10-31T17:49:18.844Z,68.45
2022-10-31T17:51:47.123Z,68.36
2022-10-31T17:54:18.950Z,68.47
2022-10-31T17:56:47.427Z,68.61
2022-10-31T17:59:15.771Z,68.66
2022-10-31T18:01:44.292Z,68.75
2022-10-31T18:04:12.901Z,68.60
2022-10-31T18:06:41.386Z,68.69
2022-10-31T18:09:09.686Z,68.48
2022-10-31T18:11:37.969Z,68.29
2022-10-31T18:14:06.316Z,68.43
2022-10-31T18:16:37.753Z,68.60
2022-10-31T18:19:06.233Z,68.59
2022-10-31T18:21:34.652Z,68.90
2022-10-31T18:24:03.223Z,68.92
2022-10-31T18:26:32.431Z,69.07
2022-10-31T18:29:01.238Z,69.13
2022-10-31T18:31:29.845Z,69.29
2022-10-31T18:33:58.353Z,69.45
2022-10-31T18:36:29.805Z,69.68
2022-10-31T18:38:58.594Z,69.60
2022-10-31T18:41:28.601Z,69.82
2022-10-31T18:44:02.299Z,70.38
2022-10-31T18:46:30.752Z,70.61
2022-10-31T18:49:00.831Z,70.64
2022-10-31T18:51:29.897Z,70.77
2022-10-31T18:54:01.085Z,71.00
2022-10-31T18:56:35.660Z,70.97
2022-10-31T18:59:04.452Z,70.93
2022-10-31T19:01:33.009Z,70.84
2022-10-31T19:04:01.541Z,71.07
2022-10-31T19:06:31.054Z,70.94
2022-10-31T19:09:03.478Z,71.06
2022-10-31T19:11:33.986Z,70.93
2022-10-31T19:14:03.532Z,71.02
2022-10-31T19:16:33.614Z,70.99
2022-10-31T19:19:01.906Z,71.20
2022-10-31T19:21:32.710Z,71.06
2022-10-31T19:24:01.300Z,71.16
2022-10-31T19:26:29.875Z,72.05
2022-10-31T19:28:58.415Z,71.94
2022-10-31T19:31:27.176Z,72.01
2022-10-31T19:33:55.575Z,72.00
2022-10-31T19:36:24.470Z,71.99
2022-10-31T19:38:54.045Z,72.09
2022-10-31T19:41:26.373Z,72.27
2022-10-31T19:43:55.832Z,72.20
2022-10-31T19:49:13.100Z,72.60
2022-10-31T19:51:41.565Z,72.60
2022-10-31T19:54:11.575Z,72.68
2022-10-31T19:56:40.062Z,72.54
2022-10-31T19:59:08.431Z,72.40
2022-10-31T20:01:37.009Z,72.29
2022-10-31T20:04:05.471Z,72.43
2022-10-31T20:06:36.739Z,72.45
2022-10-31T20:09:13.939Z,72.38
2022-10-31T20:11:44.981Z,72.78
2022-10-31T20:14:16.510Z,73.23
2022-10-31T20:16:46.209Z,73.34
2022-10-31T20:19:14.409Z,73.50
2022-10-31T20:21:43.084Z,73.58
2022-10-31T20:24:11.770Z,73.41
2022-10-31T20:26:41.698Z,73.32
2022-10-31T20:29:14.044Z,73.23
2022-10-31T20:31:43.397Z,73.07
2022-10-31T20:34:11.952Z,72.87
2022-10-31T20:36:40.373Z,72.89
2022-10-31T20:39:10.314Z,72.84
2022-10-31T20:41:39.615Z,72.87
2022-10-31T20:44:08.399Z,72.80
2022-10-31T20:46:36.795Z,72.84
2022-10-31T20:49:05.472Z,72.89
2022-10-31T20:51:33.877Z,72.83
2022-10-31T20:54:02.362Z,73.10
2022-10-31T20:56:30.873Z,73.00
2022-10-31T20:58:59.217Z,73.39
2022-10-31T21:01:33.493Z,73.44
2022-10-31T21:04:04.371Z,73.48
2022-10-31T21:06:32.735Z,73.68
2022-10-31T21:09:01.420Z,73.81
2022-10-31T21:11:30.171Z,73.82
2022-10-31T21:13:59.722Z,73.84
2022-10-31T21:16:31.425Z,73.93
2022-10-31T21:19:01.112Z,73.95
2022-10-31T21:21:35.513Z,73.87
2022-10-31T21:24:13.712Z,73.77
2022-10-31T21:26:47.103Z,73.73
2022-10-31T21:29:17.648Z,73.81
2022-10-31T21:31:46.120Z,73.88
2022-10-31T21:34:15.221Z,74.12
2022-10-31T21:36:43.705Z,74.35
2022-10-31T21:39:11.943Z,74.42
2022-10-31T21:41:40.653Z,74.51
2022-10-31T21:44:08.997Z,74.69
2022-10-31T21:46:38.957Z,74.78
2022-10-31T21:49:07.539Z,74.73
2022-10-31T21:51:36.965Z,74.69
2022-10-31T21:54:24.050Z,74.75
2022-10-31T21:56:52.735Z,74.84
2022-10-31T21:59:22.290Z,74.77
2022-10-31T22:01:52.092Z,74.86
2022-10-31T22:04:20.647Z,74.76
2022-10-31T22:06:49.024Z,74.85
2022-10-31T22:09:20.047Z,74.88
2022-10-31T22:11:48.427Z,75.02
2022-10-31T22:14:17.025Z,75.18
2022-10-31T22:16:45.518Z,75.31
2022-10-31T22:19:14.899Z,75.44
2022-10-31T22:21:47.401Z,75.78
2022-10-31T22:24:17.560Z,75.70
2022-10-31T22:26:46.187Z,75.77
2022-10-31T22:29:18.354Z,75.52
2022-10-31T22:31:52.025Z,75.80
2022-10-31T22:34:23.713Z,75.64
2022-10-31T22:36:52.138Z,75.75
2022-10-31T22:39:21.088Z,75.89
2022-10-31T22:41:49.493Z,75.76
2022-10-31T22:44:18.644Z,75.98
2022-10-31T22:46:47.550Z,76.25
2022-10-31T22:49:16.650Z,76.08
2022-10-31T22:51:45.392Z,76.64
2022-10-31T22:54:17.375Z,76.63
2022-10-31T22:56:46.564Z,77.03
2022-10-31T22:59:16.843Z,77.03
2022-10-31T23:01:46.206Z,77.08
2022-10-31T23:04:16.565Z,77.29
2022-10-31T23:06:46.023Z,76.93
2022-10-31T23:09:17.296Z,77.11
2022-10-31T23:11:46.120Z,76.68
2022-10-31T23:14:21.119Z,77.05
2022-10-31T23:16:55.524Z,77.27
2022-10-31T23:19:30.495Z,77.14
2022-10-31T23:22:04.259Z,77.17
2022-10-31T23:24:41.634Z,77.44
2022-10-31T23:27:23.747Z,77.43
2022-10-31T23:29:58.401Z,77.12
2022-10-31T23:32:29.479Z,77.16
2022-10-31T23:35:01.933Z,77.17
2022-10-31T23:37:33.127Z,77.44
2022-10-31T23:40:01.718Z,77.19
2022-10-31T23:42:30.313Z,77.18
2022-10-31T23:44:59.013Z,77.56
2022-10-31T23:47:27.479Z,77.42
2022-10-31T23:49:55.655Z,77.54
2022-10-31T23:52:24.117Z,77.88
2022-10-31T23:54:52.523Z,78.11
2022-10-31T23:57:20.998Z,78.00
2022-10-31T23:59:49.631Z,78.06
